Time;durP1;ratioP1;P1;durP2;ratioP2;P2;SDS_P1;SDS_P2;PMS_P1;PMS_P2;Temp;Humidity;BMP_temperature;BMP_pressure;BME280_temperature;BME280_humidity;BME280_pressure;Samples;Min_cycle;Max_cycle;Signal;HPM_P1;HPM_P2
2022/06/22 00:02:03;;;;;;;3.70;2.83;;;;;;;;;;5035933;28;20828;-76
2022/06/22 00:04:34;;;;;;;4.10;2.90;;;;;;;;;;5036349;28;20424;-76
2022/06/22 00:07:21;;;;;;;6.43;3.30;;;;;;;;;;5035838;28;20421;-76
2022/06/22 00:09:47;;;;;;;7.43;3.23;;;;;;;;;;5036551;28;20508;-76
2022/06/22 00:12:24;;;;;;;9.37;3.40;;;;;;;;;;5036884;28;20429;-76
2022/06/22 00:14:51;;;;;;;5.70;4.07;;;;;;;;;;5036271;28;20562;-76
2022/06/22 00:17:26;;;;;;;7.07;3.47;;;;;;;;;;5036575;28;20858;-76
2022/06/22 00:19:58;;;;;;;5.97;3.77;;;;;;;;;;5036599;28;20423;-76
2022/06/22 00:22:25;;;;;;;11.37;3.80;;;;;;;;;;5036370;28;20456;-76
2022/06/22 00:25:09;;;;;;;4.20;3.33;;;;;;;;;;5036296;28;20471;-77
2022/06/22 00:27:36;;;;;;;6.73;3.70;;;;;;;;;;5036297;28;20807;-76
2022/06/22 00:30:13;;;;;;;7.33;3.50;;;;;;;;;;5035098;28;20433;-75
2022/06/22 00:32:39;;;;;;;4.83;3.90;;;;;;;;;;5036277;28;20452;-75
2022/06/22 00:35:24;;;;;;;8.73;3.73;;;;;;;;;;5035932;28;20428;-76
2022/06/22 00:37:53;;;;;;;4.10;3.20;;;;;;;;;;5036423;28;20424;-75
2022/06/22 00:40:19;;;;;;;4.97;3.63;;;;;;;;;;5036234;28;20890;-75
2022/06/22 00:42:50;;;;;;;6.90;4.23;;;;;;;;;;5035951;28;20473;-76
2022/06/22 00:45:27;;;;;;;6.97;3.80;;;;;;;;;;5035501;28;20452;-76
2022/06/22 00:48:02;;;;;;;6.20;4.00;;;;;;;;;;5035920;28;20405;-76
2022/06/22 00:50:48;;;;;;;5.10;4.03;;;;;;;;;;5035635;28;20824;-76
2022/06/22 00:53:20;;;;;;;4.83;3.50;;;;;;;;;;5035255;28;20416;-76
2022/06/22 00:55:55;;;;;;;12.17;3.67;;;;;;;;;;5035677;28;20476;-76
2022/06/22 00:58:32;;;;;;;4.97;4.17;;;;;;;;;;5035643;28;20424;-75
2022/06/22 01:01:17;;;;;;;4.80;3.30;;;;;;;;;;5035727;28;20452;-76
2022/06/22 01:04:03;;;;;;;10.23;4.17;;;;;;;;;;5035508;28;20468;-76
2022/06/22 01:06:33;;;;;;;4.53;3.10;;;;;;;;;;5035635;28;20455;-75
2022/06/22 01:09:03;;;;;;;5.20;3.87;;;;;;;;;;5035621;28;20420;-75
2022/06/22 01:14:41;;;;;;;4.60;3.57;;;;;;;;;;5035095;28;20898;-75
2022/06/22 01:17:12;;;;;;;5.70;3.37;;;;;;;;;;5035428;28;20471;-76
2022/06/22 01:19:47;;;;;;;7.70;4.23;;;;;;;;;;5035230;28;20413;-75
2022/06/22 01:22:28;;;;;;;3.93;3.60;;;;;;;;;;5035074;28;20464;-76
2022/06/22 01:24:58;;;;;;;5.73;4.03;;;;;;;;;;5035052;28;20418;-75
2022/06/22 01:27:33;;;;;;;6.40;4.00;;;;;;;;;;5035452;28;20431;-76
2022/06/22 01:30:00;;;;;;;5.13;3.17;;;;;;;;;;5033832;28;20478;-76
2022/06/22 01:32:31;;;;;;;3.83;3.40;;;;;;;;;;5035077;28;20575;-75
2022/06/22 01:34:59;;;;;;;4.70;3.20;;;;;;;;;;5034456;28;20437;-75
2022/06/22 01:37:28;;;;;;;5.73;3.30;;;;;;;;;;5034708;28;20887;-76
2022/06/22 01:40:06;;;;;;;3.63;3.30;;;;;;;;;;5034572;28;20814;-75
2022/06/22 01:42:40;;;;;;;4.63;2.90;;;;;;;;;;5034534;28;20465;-75
2022/06/22 01:45:14;;;;;;;6.00;3.57;;;;;;;;;;5034136;28;20433;-75
2022/06/22 01:47:50;;;;;;;4.03;3.07;;;;;;;;;;5033212;28;20418;-75
2022/06/22 01:50:21;;;;;;;3.87;3.57;;;;;;;;;;5034523;28;20417;-75
2022/06/22 01:52:51;;;;;;;6.70;2.90;;;;;;;;;;5034469;28;20416;-76
2022/06/22 01:55:33;;;;;;;5.40;4.00;;;;;;;;;;5034387;28;20509;-75
2022/06/22 01:58:19;;;;;;;3.57;2.80;;;;;;;;;;5034168;28;20511;-76
2022/06/22 02:00:56;;;;;;;6.63;3.57;;;;;;;;;;5033734;28;20460;-76
2022/06/22 02:03:32;;;;;;;4.70;3.17;;;;;;;;;;5034022;28;20460;-76
2022/06/22 02:07:44;;;;;;;4.93;3.50;;;;;;;;;;5034249;28;20431;-76
2022/06/22 02:08:54;;;;;;;4.00;3.70;;;;;;;;;;5034243;28;20413;-76
2022/06/22 02:11:22;;;;;;;8.00;4.13;;;;;;;;;;5034274;28;20459;-76
2022/06/22 02:13:48;;;;;;;5.27;3.60;;;;;;;;;;5033919;28;20499;-75
2022/06/22 02:16:33;;;;;;;4.47;3.43;;;;;;;;;;5034074;28;20472;-75
2022/06/22 02:18:59;;;;;;;7.30;4.10;;;;;;;;;;5034266;28;20397;-75
2022/06/22 02:21:44;;;;;;;4.73;3.63;;;;;;;;;;5034053;28;20539;-76
2022/06/22 02:24:27;;;;;;;5.90;3.40;;;;;;;;;;5032888;28;20783;-76
2022/06/22 02:26:55;;;;;;;4.80;3.60;;;;;;;;;;5034071;28;20476;-75
2022/06/22 02:29:24;;;;;;;6.10;3.60;;;;;;;;;;5034052;28;20410;-76
2022/06/22 02:31:53;;;;;;;5.40;3.70;;;;;;;;;;5033773;28;20850;-78
2022/06/22 02:34:19;;;;;;;3.87;3.50;;;;;;;;;;5033270;28;20421;-75
2022/06/22 02:36:46;;;;;;;6.37;4.83;;;;;;;;;;5033816;28;20543;-76
2022/06/22 02:39:14;;;;;;;5.10;3.70;;;;;;;;;;5033582;28;20413;-76
2022/06/22 02:44:30;;;;;;;4.50;3.67;;;;;;;;;;5033267;28;20420;-75
2022/06/22 02:46:57;;;;;;;5.20;3.83;;;;;;;;;;5032288;28;20520;-75
2022/06/22 02:49:30;;;;;;;5.13;3.27;;;;;;;;;;5033482;28;20816;-75
2022/06/22 02:51:56;;;;;;;7.80;3.90;;;;;;;;;;5033468;28;20445;-75
2022/06/22 02:54:33;;;;;;;4.33;3.90;;;;;;;;;;5032933;28;20462;-75
2022/06/22 02:57:15;;;;;;;4.43;3.53;;;;;;;;;;5033363;28;20413;-75
2022/06/22 02:59:42;;;;;;;5.23;3.43;;;;;;;;;;5033534;28;20523;-76
2022/06/22 03:02:08;;;;;;;5.17;3.50;;;;;;;;;;5033045;28;20465;-75
2022/06/22 03:04:34;;;;;;;6.33;3.23;;;;;;;;;;5031410;28;20425;-76
2022/06/22 03:07:01;;;;;;;4.43;3.97;;;;;;;;;;5033285;28;20406;-75
2022/06/22 03:09:28;;;;;;;4.17;3.77;;;;;;;;;;5033181;28;20747;-76
2022/06/22 03:11:55;;;;;;;5.07;4.20;;;;;;;;;;5032053;28;20934;-75
2022/06/22 03:14:24;;;;;;;5.97;4.10;;;;;;;;;;5032638;28;20413;-76
2022/06/22 03:17:02;;;;;;;5.70;4.00;;;;;;;;;;5033258;28;20421;-75
2022/06/22 03:19:46;;;;;;;8.70;4.00;;;;;;;;;;5033131;28;20401;-76
2022/06/22 03:22:19;;;;;;;9.07;4.20;;;;;;;;;;5031685;28;20540;-76
2022/06/22 03:24:49;;;;;;;6.00;4.53;;;;;;;;;;5031564;28;20437;-76
2022/06/22 03:27:24;;;;;;;5.47;4.30;;;;;;;;;;5033069;28;20485;-75
2022/06/22 03:29:53;;;;;;;7.50;4.33;;;;;;;;;;5033078;28;20421;-76
2022/06/22 03:32:25;;;;;;;5.20;4.20;;;;;;;;;;5033048;28;20508;-76
2022/06/22 03:34:55;;;;;;;5.73;4.23;;;;;;;;;;5034090;28;20436;-76
2022/06/22 03:37:25;;;;;;;5.07;4.53;;;;;;;;;;5037370;28;20409;-75
2022/06/22 03:39:53;;;;;;;5.50;3.90;;;;;;;;;;5037299;28;20428;-76
2022/06/22 03:42:30;;;;;;;4.97;3.90;;;;;;;;;;5037040;28;20436;-76
2022/06/22 03:45:05;;;;;;;7.33;4.00;;;;;;;;;;5035817;28;20433;-75
2022/06/22 03:48:00;;;;;;;5.17;4.47;;;;;;;;;;5037076;28;20405;-76
2022/06/22 03:50:38;;;;;;;5.33;4.30;;;;;;;;;;5036147;28;20432;-75
2022/06/22 03:53:25;;;;;;;4.57;3.67;;;;;;;;;;5036700;28;20415;-76
2022/06/22 03:55:52;;;;;;;5.97;4.00;;;;;;;;;;5036254;28;20527;-76
2022/06/22 03:58:20;;;;;;;7.50;5.13;;;;;;;;;;5036786;28;20451;-76
2022/06/22 04:00:47;;;;;;;12.20;5.20;;;;;;;;;;5036561;28;20479;-76
2022/06/22 04:03:14;;;;;;;4.87;3.90;;;;;;;;;;5035036;28;20475;-76
2022/06/22 04:05:41;;;;;;;5.97;4.37;;;;;;;;;;5036679;28;20515;-75
2022/06/22 04:08:13;;;;;;;5.43;3.83;;;;;;;;;;5036671;28;20432;-75
2022/06/22 04:10:45;;;;;;;7.10;3.83;;;;;;;;;;5036546;28;20754;-76
2022/06/22 04:13:16;;;;;;;6.23;4.20;;;;;;;;;;5034935;28;20395;-76
2022/06/22 04:15:59;;;;;;;9.67;4.67;;;;;;;;;;5036507;28;20433;-75
2022/06/22 04:18:46;;;;;;;6.93;4.20;;;;;;;;;;5036483;28;20416;-75
2022/06/22 04:21:14;;;;;;;6.53;4.77;;;;;;;;;;5036199;28;20416;-76
2022/06/22 04:23:45;;;;;;;9.97;5.33;;;;;;;;;;5036125;28;20531;-76
2022/06/22 04:26:20;;;;;;;6.07;4.53;;;;;;;;;;5036400;28;20425;-76
2022/06/22 04:29:01;;;;;;;6.07;4.10;;;;;;;;;;5036366;28;20493;-75
2022/06/22 04:31:30;;;;;;;6.00;4.70;;;;;;;;;;5036239;28;20409;-75
2022/06/22 04:34:00;;;;;;;6.13;5.27;;;;;;;;;;5035788;28;20441;-75
2022/06/22 04:36:31;;;;;;;13.63;5.53;;;;;;;;;;5036055;28;20530;-75
2022/06/22 04:38:59;;;;;;;6.90;4.83;;;;;;;;;;5036088;28;20413;-76
2022/06/22 04:41:33;;;;;;;6.27;4.97;;;;;;;;;;5036081;28;20424;-75
2022/06/22 04:44:02;;;;;;;7.80;5.30;;;;;;;;;;5035749;28;20413;-76
2022/06/22 04:46:33;;;;;;;10.70;5.83;;;;;;;;;;5035012;28;20424;-75
2022/06/22 04:49:03;;;;;;;6.30;4.67;;;;;;;;;;5035892;28;20775;-76
2022/06/22 04:51:33;;;;;;;7.50;5.00;;;;;;;;;;5034766;28;20818;-76
2022/06/22 04:54:17;;;;;;;7.90;5.50;;;;;;;;;;5035665;28;20803;-76
2022/06/22 04:56:46;;;;;;;7.90;5.40;;;;;;;;;;5035757;28;20759;-75
2022/06/22 04:59:14;;;;;;;5.70;5.10;;;;;;;;;;5035547;28;20465;-76
2022/06/22 05:01:44;;;;;;;6.80;6.00;;;;;;;;;;5035821;28;20401;-76
2022/06/22 05:04:17;;;;;;;8.13;5.43;;;;;;;;;;5035366;28;20421;-75
2022/06/22 05:06:43;;;;;;;6.57;4.77;;;;;;;;;;5035606;28;20406;-76
2022/06/22 05:09:14;;;;;;;9.50;6.43;;;;;;;;;;5035354;28;20463;-76
2022/06/22 05:11:43;;;;;;;9.37;5.90;;;;;;;;;;5035429;28;20423;-76
2022/06/22 05:14:28;;;;;;;12.87;6.60;;;;;;;;;;5033872;28;20828;-75
2022/06/22 05:16:57;;;;;;;6.50;5.60;;;;;;;;;;5035567;28;20808;-76
2022/06/22 05:19:25;;;;;;;10.20;6.20;;;;;;;;;;5035167;28;20547;-76
2022/06/22 05:21:50;;;;;;;9.20;5.60;;;;;;;;;;5035294;28;20769;-76
2022/06/22 05:24:26;;;;;;;13.37;6.03;;;;;;;;;;5033689;28;20406;-75
2022/06/22 05:26:55;;;;;;;9.77;6.00;;;;;;;;;;5035336;28;20414;-76
2022/06/22 05:29:27;;;;;;;9.53;6.07;;;;;;;;;;5033685;28;20424;-77
2022/06/22 05:31:56;;;;;;;6.03;5.40;;;;;;;;;;5035206;28;20429;-76
2022/06/22 05:34:24;;;;;;;9.40;5.60;;;;;;;;;;5033084;28;20441;-76
2022/06/22 05:36:56;;;;;;;8.17;5.73;;;;;;;;;;5035136;28;20417;-76
2022/06/22 05:39:22;;;;;;;6.50;5.60;;;;;;;;;;5033906;28;20894;-76
2022/06/22 05:41:48;;;;;;;6.80;5.73;;;;;;;;;;5035121;28;20435;-76
2022/06/22 05:44:16;;;;;;;8.30;6.03;;;;;;;;;;5034602;28;20930;-76
2022/06/22 05:46:47;;;;;;;7.00;5.33;;;;;;;;;;5034768;28;20438;-77
2022/06/22 05:49:16;;;;;;;10.03;6.33;;;;;;;;;;5034967;28;20757;-76
2022/06/22 05:51:48;;;;;;;10.77;6.20;;;;;;;;;;5034833;28;20401;-77
2022/06/22 05:54:33;;;;;;;7.47;5.17;;;;;;;;;;5034386;28;20394;-76
2022/06/22 05:57:09;;;;;;;10.23;5.47;;;;;;;;;;5034755;28;20387;-77
2022/06/22 05:59:41;;;;;;;7.50;5.20;;;;;;;;;;5033422;28;20405;-76
2022/06/22 06:02:22;;;;;;;12.67;5.63;;;;;;;;;;5034532;28;20952;-76
2022/06/22 06:04:51;;;;;;;8.37;5.50;;;;;;;;;;5032985;28;20423;-76
2022/06/22 06:07:20;;;;;;;7.40;5.67;;;;;;;;;;5034511;28;20433;-76
2022/06/22 06:09:46;;;;;;;9.67;4.90;;;;;;;;;;5034205;28;20420;-76
2022/06/22 06:12:24;;;;;;;7.37;4.77;;;;;;;;;;5033229;28;20773;-76
2022/06/22 06:14:52;;;;;;;6.93;5.90;;;;;;;;;;5034034;28;20444;-75
2022/06/22 06:17:22;;;;;;;9.60;5.70;;;;;;;;;;5034335;28;20406;-76
2022/06/22 06:19:51;;;;;;;9.70;6.43;;;;;;;;;;5034193;28;20418;-77
2022/06/22 06:22:17;;;;;;;10.40;5.93;;;;;;;;;;5032752;28;20515;-75
2022/06/22 06:27:35;;;;;;;12.70;5.47;;;;;;;;;;5034519;28;20429;-76
2022/06/22 06:30:01;;;;;;;12.70;4.70;;;;;;;;;;5034008;28;20750;-75
2022/06/22 06:32:29;;;;;;;12.10;5.73;;;;;;;;;;5034085;28;20428;-76
2022/06/22 06:35:15;;;;;;;7.83;4.90;;;;;;;;;;5033551;28;20432;-76
2022/06/22 06:37:41;;;;;;;7.20;5.10;;;;;;;;;;5034120;28;20748;-76
2022/06/22 06:40:11;;;;;;;6.50;5.07;;;;;;;;;;5032702;28;20410;-76
2022/06/22 06:42:41;;;;;;;9.53;5.30;;;;;;;;;;5034015;28;20555;-76
2022/06/22 06:45:15;;;;;;;6.43;4.73;;;;;;;;;;5033443;28;20465;-74
2022/06/22 06:47:43;;;;;;;9.90;4.80;;;;;;;;;;5033742;28;20908;-76
2022/06/22 06:50:18;;;;;;;8.87;5.70;;;;;;;;;;5032478;28;21381;-76
2022/06/22 06:52:52;;;;;;;12.57;4.97;;;;;;;;;;5033688;28;20405;-76
2022/06/22 06:55:34;;;;;;;9.30;5.03;;;;;;;;;;5033709;28;20524;-75
2022/06/22 06:58:15;;;;;;;9.27;5.10;;;;;;;;;;5033539;28;20741;-76
2022/06/22 07:00:42;;;;;;;7.77;5.10;;;;;;;;;;5033736;28;20409;-75
2022/06/22 07:03:12;;;;;;;6.73;5.23;;;;;;;;;;5039978;28;20471;-75
2022/06/22 07:05:38;;;;;;;14.13;5.57;;;;;;;;;;5047006;28;20935;-77
2022/06/22 07:08:09;;;;;;;5.83;4.57;;;;;;;;;;5051922;28;20396;-76
2022/06/22 07:10:35;;;;;;;8.90;5.23;;;;;;;;;;5052996;28;20423;-76
2022/06/22 07:13:11;;;;;;;6.67;4.97;;;;;;;;;;5052971;28;20419;-76
2022/06/22 07:15:40;;;;;;;8.30;5.07;;;;;;;;;;5053367;28;20840;-76
2022/06/22 07:18:24;;;;;;;10.13;4.30;;;;;;;;;;5053274;28;20413;-76
2022/06/22 07:21:02;;;;;;;6.67;4.37;;;;;;;;;;5053350;28;20408;-76
2022/06/22 07:23:47;;;;;;;10.63;5.50;;;;;;;;;;5052778;28;20460;-76
2022/06/22 07:26:16;;;;;;;10.23;4.50;;;;;;;;;;5053049;28;20395;-75
2022/06/22 07:28:45;;;;;;;6.00;4.23;;;;;;;;;;5053011;28;20421;-77
2022/06/22 07:31:23;;;;;;;7.77;4.20;;;;;;;;;;5051835;28;20387;-76
2022/06/22 07:33:51;;;;;;;6.53;4.40;;;;;;;;;;5053000;28;20415;-75
2022/06/22 07:36:34;;;;;;;7.20;4.10;;;;;;;;;;5052868;28;20420;-76
2022/06/22 07:39:02;;;;;;;6.90;4.30;;;;;;;;;;5053194;28;20411;-77
2022/06/22 07:41:29;;;;;;;8.47;4.30;;;;;;;;;;5052041;28;20404;-76
2022/06/22 07:44:21;;;;;;;8.20;4.03;;;;;;;;;;5051695;28;20445;-76
2022/06/22 07:46:52;;;;;;;6.87;4.00;;;;;;;;;;5051645;28;20909;-77
2022/06/22 07:49:21;;;;;;;10.90;4.57;;;;;;;;;;5052998;28;20422;-76
2022/06/22 07:51:50;;;;;;;9.77;4.60;;;;;;;;;;5052954;28;20466;-76
2022/06/22 07:54:19;;;;;;;6.60;4.00;;;;;;;;;;5052476;28;20752;-76
2022/06/22 07:56:58;;;;;;;6.17;3.60;;;;;;;;;;5052746;28;20394;-76
2022/06/22 07:59:42;;;;;;;8.37;4.67;;;;;;;;;;5052743;28;20384;-76
2022/06/22 08:02:18;;;;;;;10.80;5.13;;;;;;;;;;5052683;28;20455;-76
2022/06/22 08:04:47;;;;;;;6.00;3.40;;;;;;;;;;5052286;28;20428;-76
2022/06/22 08:07:24;;;;;;;5.47;3.90;;;;;;;;;;5052629;28;20411;-76
2022/06/22 08:09:53;;;;;;;9.23;3.87;;;;;;;;;;5051402;28;20928;-76
2022/06/22 08:12:28;;;;;;;4.77;3.50;;;;;;;;;;5052688;28;20425;-76
2022/06/22 08:14:54;;;;;;;8.67;3.83;;;;;;;;;;5052167;28;20407;-76
2022/06/22 08:17:23;;;;;;;7.27;3.93;;;;;;;;;;5052772;28;20412;-76
2022/06/22 08:19:49;;;;;;;6.93;4.30;;;;;;;;;;5052766;28;20417;-76
2022/06/22 08:22:15;;;;;;;5.30;3.93;;;;;;;;;;5054425;28;20494;-75
2022/06/22 08:24:45;;;;;;;9.40;4.00;;;;;;;;;;5055999;28;20772;-74
2022/06/22 08:27:17;;;;;;;11.80;4.37;;;;;;;;;;5056367;28;20758;-75
2022/06/22 08:29:43;;;;;;;4.50;3.60;;;;;;;;;;5056449;28;20494;-75
2022/06/22 08:32:19;;;;;;;9.27;3.83;;;;;;;;;;5056425;28;20429;-75
2022/06/22 08:34:52;;;;;;;7.57;3.40;;;;;;;;;;5055679;28;20428;-76
2022/06/22 08:37:29;;;;;;;5.17;3.20;;;;;;;;;;5056305;28;20437;-75
2022/06/22 08:39:57;;;;;;;7.10;3.70;;;;;;;;;;5056238;28;20414;-75
2022/06/22 08:42:41;;;;;;;6.00;3.33;;;;;;;;;;5056265;28;20475;-75
2022/06/22 08:45:17;;;;;;;5.97;2.80;;;;;;;;;;5054373;28;20436;-75
2022/06/22 08:48:01;;;;;;;6.87;3.10;;;;;;;;;;5056048;28;20978;-76
2022/06/22 08:50:30;;;;;;;4.20;2.73;;;;;;;;;;5055766;28;20405;-74
2022/06/22 08:53:14;;;;;;;5.50;3.30;;;;;;;;;;5055472;28;20401;-76
2022/06/22 08:56:07;;;;;;;2.57;2.23;;;;;;;;;;5055938;28;20585;-75
2022/06/22 08:58:38;;;;;;;5.67;2.30;;;;;;;;;;5055618;28;20412;-75
2022/06/22 09:01:11;;;;;;;4.50;2.50;;;;;;;;;;5055635;28;20409;-73
2022/06/22 09:03:57;;;;;;;5.73;2.37;;;;;;;;;;5051766;28;20472;-75
2022/06/22 09:06:42;;;;;;;2.60;2.10;;;;;;;;;;5055484;28;20436;-74
2022/06/22 09:09:11;;;;;;;9.23;2.73;;;;;;;;;;5055287;28;20411;-77
2022/06/22 09:11:55;;;;;;;5.50;2.13;;;;;;;;;;5055260;28;20489;-77
2022/06/22 09:14:33;;;;;;;4.77;2.23;;;;;;;;;;5055018;28;20413;-77
2022/06/22 09:16:59;;;;;;;3.77;2.30;;;;;;;;;;5055375;28;20416;-75
2022/06/22 09:19:44;;;;;;;4.47;2.43;;;;;;;;;;5055213;28;20501;-74
2022/06/22 09:22:14;;;;;;;4.13;2.07;;;;;;;;;;5055230;28;20457;-75
2022/06/22 09:24:40;;;;;;;4.30;2.30;;;;;;;;;;5055185;28;20432;-75
2022/06/22 09:27:09;;;;;;;6.43;2.40;;;;;;;;;;5055422;28;20492;-75
2022/06/22 09:30:01;;;;;;;4.43;2.23;;;;;;;;;;5055269;28;20737;-74
2022/06/22 09:32:29;;;;;;;6.13;2.00;;;;;;;;;;5054988;28;20482;-75
2022/06/22 09:34:58;;;;;;;4.60;2.23;;;;;;;;;;5054702;28;20432;-74
2022/06/22 09:37:40;;;;;;;4.83;2.03;;;;;;;;;;5054875;28;20413;-73
2022/06/22 09:40:11;;;;;;;3.30;2.20;;;;;;;;;;5054851;28;20825;-76
2022/06/22 09:43:00;;;;;;;4.07;2.30;;;;;;;;;;5054697;28;20812;-76
2022/06/22 09:45:35;;;;;;;3.23;2.07;;;;;;;;;;5054748;28;20416;-76
2022/06/22 09:48:31;;;;;;;4.70;1.87;;;;;;;;;;5054904;28;20400;-76
2022/06/22 09:51:15;;;;;;;3.93;2.43;;;;;;;;;;5050126;28;20416;-75
2022/06/22 09:53:48;;;;;;;3.27;2.30;;;;;;;;;;5054249;28;20408;-76
2022/06/22 09:56:20;;;;;;;4.07;2.87;;;;;;;;;;5054602;28;20432;-76
2022/06/22 09:58:49;;;;;;;5.30;2.37;;;;;;;;;;5054683;28;20404;-76
2022/06/22 10:01:15;;;;;;;3.80;2.40;;;;;;;;;;5054507;28;20497;-76
2022/06/22 10:03:50;;;;;;;2.37;2.17;;;;;;;;;;5053930;28;20468;-76
2022/06/22 10:06:22;;;;;;;4.00;2.60;;;;;;;;;;5054624;28;20424;-77
2022/06/22 10:09:06;;;;;;;4.70;2.47;;;;;;;;;;5054417;28;20405;-76
2022/06/22 10:11:38;;;;;;;4.07;2.00;;;;;;;;;;5054118;28;20447;-76
2022/06/22 10:14:24;;;;;;;4.40;2.40;;;;;;;;;;5053943;28;20413;-76
2022/06/22 10:16:50;;;;;;;3.20;2.27;;;;;;;;;;5054332;28;20455;-75
2022/06/22 10:19:27;;;;;;;4.20;2.43;;;;;;;;;;5054202;28;20409;-77
2022/06/22 10:21:53;;;;;;;8.13;2.63;;;;;;;;;;5054092;28;20416;-75
2022/06/22 10:24:37;;;;;;;5.43;2.20;;;;;;;;;;5053703;28;20866;-76
2022/06/22 10:27:22;;;;;;;6.03;3.30;;;;;;;;;;5054225;28;20413;-75
2022/06/22 10:29:48;;;;;;;3.67;2.17;;;;;;;;;;5053871;28;20397;-76
2022/06/22 10:32:20;;;;;;;4.53;2.20;;;;;;;;;;5053743;28;20424;-76
2022/06/22 10:34:49;;;;;;;4.67;2.43;;;;;;;;;;5053618;28;20432;-76
2022/06/22 10:37:31;;;;;;;3.50;2.60;;;;;;;;;;5054059;28;20408;-76
2022/06/22 10:45:08;;;;;;;5.50;3.10;;;;;;;;;;5053932;28;20401;-76
2022/06/22 10:46:01;;;;;;;4.73;2.30;;;;;;;;;;5052973;28;20431;-76
2022/06/22 10:48:54;;;;;;;2.87;2.57;;;;;;;;;;5053877;28;20459;-77
2022/06/22 10:51:28;;;;;;;4.00;2.50;;;;;;;;;;5052242;28;20404;-75
2022/06/22 10:54:06;;;;;;;4.97;2.73;;;;;;;;;;5052837;28;20504;-76
2022/06/22 10:56:38;;;;;;;3.03;2.33;;;;;;;;;;5052087;28;20502;-77
2022/06/22 10:59:22;;;;;;;7.20;2.60;;;;;;;;;;5052155;28;20975;-77
2022/06/22 11:02:16;;;;;;;2.70;2.50;;;;;;;;;;5053308;28;20413;-76
2022/06/22 11:04:51;;;;;;;3.30;2.63;;;;;;;;;;5053053;28;20429;-76
2022/06/22 11:07:36;;;;;;;6.60;2.93;;;;;;;;;;5043069;28;20409;-75
2022/06/22 11:10:08;;;;;;;5.00;2.77;;;;;;;;;;5053116;28;20436;-76
2022/06/22 11:13:00;;;;;;;4.10;2.50;;;;;;;;;;5053197;28;20431;-77
2022/06/22 11:15:38;;;;;;;4.20;2.13;;;;;;;;;;5044737;28;20801;-76
2022/06/22 11:18:20;;;;;;;4.23;2.33;;;;;;;;;;5052949;28;20809;-75
2022/06/22 11:21:01;;;;;;;5.87;2.57;;;;;;;;;;5053255;28;20433;-75
2022/06/22 11:23:42;;;;;;;3.10;2.00;;;;;;;;;;5051495;28;20460;-76
2022/06/22 11:32:30;;;;;;;3.67;2.10;;;;;;;;;;5049997;28;20491;-77
2022/06/22 11:35:08;;;;;;;7.73;2.10;;;;;;;;;;5032716;28;20421;-76
2022/06/22 11:37:34;;;;;;;2.60;1.80;;;;;;;;;;5033314;28;20402;-76
2022/06/22 11:40:24;;;;;;;3.03;2.20;;;;;;;;;;5033148;28;20405;-76
2022/06/22 11:42:56;;;;;;;4.43;2.30;;;;;;;;;;5032461;28;20824;-77
2022/06/22 11:45:50;;;;;;;4.40;1.97;;;;;;;;;;5032851;28;20425;-75
2022/06/22 11:48:16;;;;;;;3.63;1.83;;;;;;;;;;5031645;28;20401;-76
2022/06/22 11:50:45;;;;;;;4.53;2.30;;;;;;;;;;5033131;28;20976;-77
2022/06/22 11:53:11;;;;;;;2.27;1.90;;;;;;;;;;5031582;28;20512;-75
2022/06/22 11:55:51;;;;;;;7.90;1.70;;;;;;;;;;5033049;28;20515;-75
2022/06/22 11:58:21;;;;;;;4.50;2.30;;;;;;;;;;5037348;28;20412;-77
2022/06/22 12:00:53;;;;;;;3.53;1.83;;;;;;;;;;5036778;28;20416;-77
2022/06/22 12:03:22;;;;;;;3.33;2.43;;;;;;;;;;5036423;28;20460;-76
2022/06/22 12:06:15;;;;;;;2.50;1.80;;;;;;;;;;5036727;28;20421;-76
2022/06/22 12:08:47;;;;;;;2.57;1.97;;;;;;;;;;5027557;28;20413;-77
2022/06/22 12:11:32;;;;;;;3.67;1.60;;;;;;;;;;5036587;28;20405;-76
2022/06/22 12:17:33;;;;;;;2.20;1.33;;;;;;;;;;5036037;28;20475;-76
2022/06/22 12:20:02;;;;;;;1.80;1.50;;;;;;;;;;5036640;28;20416;-76
2022/06/22 12:22:34;;;;;;;2.90;1.53;;;;;;;;;;5036277;28;20543;-76
2022/06/22 12:25:19;;;;;;;2.37;1.63;;;;;;;;;;5036051;28;20827;-76
2022/06/22 12:27:53;;;;;;;2.60;1.47;;;;;;;;;;5036395;28;20758;-76
2022/06/22 12:30:28;;;;;;;3.80;2.00;;;;;;;;;;5036494;28;20406;-75
2022/06/22 12:33:05;;;;;;;2.27;1.60;;;;;;;;;;5035791;28;20437;-75
2022/06/22 12:35:39;;;;;;;4.03;1.83;;;;;;;;;;5036131;28;20583;-76
2022/06/22 12:38:16;;;;;;;2.90;1.47;;;;;;;;;;5036335;28;20412;-76
2022/06/22 12:40:47;;;;;;;1.90;1.57;;;;;;;;;;5036150;28;20432;-77
2022/06/22 12:43:22;;;;;;;2.40;1.63;;;;;;;;;;5036003;28;20456;-77
2022/06/22 12:45:55;;;;;;;2.27;1.87;;;;;;;;;;5036226;28;20429;-76
2022/06/22 12:48:21;;;;;;;2.23;1.70;;;;;;;;;;5036231;28;20489;-75
2022/06/22 12:50:56;;;;;;;3.07;1.60;;;;;;;;;;5036011;28;20417;-77
2022/06/22 12:53:48;;;;;;;4.03;2.30;;;;;;;;;;5035775;28;20425;-75
2022/06/22 12:56:32;;;;;;;2.63;2.00;;;;;;;;;;5034894;28;20445;-78
2022/06/22 12:59:03;;;;;;;2.90;2.03;;;;;;;;;;5035647;28;20409;-77
2022/06/22 13:01:29;;;;;;;3.53;1.97;;;;;;;;;;5035811;28;20425;-77
2022/06/22 13:03:58;;;;;;;4.20;1.80;;;;;;;;;;5035426;28;20469;-77
2022/06/22 13:06:26;;;;;;;5.37;1.60;;;;;;;;;;5035561;28;20429;-76
2022/06/22 13:08:53;;;;;;;2.03;1.60;;;;;;;;;;5034961;28;20858;-76
2022/06/22 13:11:21;;;;;;;3.70;1.43;;;;;;;;;;5035791;28;20409;-77
2022/06/22 13:13:50;;;;;;;3.00;1.97;;;;;;;;;;5035255;28;20429;-77
2022/06/22 13:16:35;;;;;;;3.90;1.90;;;;;;;;;;5035442;28;20923;-76
2022/06/22 13:19:19;;;;;;;3.47;1.90;;;;;;;;;;5035216;28;20409;-76
2022/06/22 13:21:50;;;;;;;3.00;1.90;;;;;;;;;;5035336;28;20449;-75
2022/06/22 13:24:16;;;;;;;3.00;1.93;;;;;;;;;;5034904;28;20472;-78
2022/06/22 13:26:42;;;;;;;2.70;1.70;;;;;;;;;;5035230;28;20409;-77
2022/06/22 13:29:26;;;;;;;2.17;1.70;;;;;;;;;;5035334;28;20762;-77
2022/06/22 13:31:54;;;;;;;1.90;1.50;;;;;;;;;;5035268;28;20795;-75
2022/06/22 13:34:22;;;;;;;3.73;1.60;;;;;;;;;;5034849;28;20500;-78
2022/06/22 13:37:07;;;;;;;3.60;2.20;;;;;;;;;;5035272;28;20406;-79
2022/06/22 13:39:32;;;;;;;5.10;2.13;;;;;;;;;;5035216;28;20441;-75
2022/06/22 13:42:03;;;;;;;2.20;2.00;;;;;;;;;;5035076;28;20898;-76
2022/06/22 13:44:47;;;;;;;2.50;1.67;;;;;;;;;;5034665;28;20698;-78
2022/06/22 13:47:32;;;;;;;3.67;2.23;;;;;;;;;;5034742;28;20397;-76
2022/06/22 13:50:19;;;;;;;2.67;1.93;;;;;;;;;;5035128;28;20586;-76
2022/06/22 13:52:47;;;;;;;6.70;1.87;;;;;;;;;;5034950;28;20400;-76
2022/06/22 13:55:28;;;;;;;3.13;2.17;;;;;;;;;;5034776;28;20433;-76
2022/06/22 13:58:10;;;;;;;3.70;2.07;;;;;;;;;;5034838;28;20941;-78
2022/06/22 14:00:49;;;;;;;2.10;1.70;;;;;;;;;;5034827;28;20803;-77
2022/06/22 14:03:19;;;;;;;2.93;1.90;;;;;;;;;;5034319;28;20457;-78
2022/06/22 14:05:51;;;;;;;5.57;2.00;;;;;;;;;;5034916;28;20418;-78
2022/06/22 14:08:21;;;;;;;2.03;1.33;;;;;;;;;;5034572;28;20412;-78
2022/06/22 14:10:50;;;;;;;4.30;2.07;;;;;;;;;;5034453;28;20413;-79
2022/06/22 14:13:26;;;;;;;2.90;1.90;;;;;;;;;;5033919;28;20412;-78
2022/06/22 14:15:59;;;;;;;3.00;2.10;;;;;;;;;;5034486;28;20439;-78
2022/06/22 14:18:26;;;;;;;5.67;2.13;;;;;;;;;;5038141;28;20417;-78
2022/06/22 14:21:11;;;;;;;2.50;1.90;;;;;;;;;;5034260;28;20417;-76
2022/06/22 14:23:38;;;;;;;2.90;1.70;;;;;;;;;;5033550;28;20472;-75
2022/06/22 14:26:13;;;;;;;3.60;2.00;;;;;;;;;;5035111;28;20690;-75
2022/06/22 14:28:45;;;;;;;3.87;2.10;;;;;;;;;;5052986;28;20482;-74
2022/06/22 14:31:17;;;;;;;5.27;1.87;;;;;;;;;;5054054;28;20424;-75
2022/06/22 14:33:43;;;;;;;4.67;2.00;;;;;;;;;;5053523;28;20508;-75
2022/06/22 14:36:12;;;;;;;5.20;2.33;;;;;;;;;;5053906;28;20966;-74
2022/06/22 14:39:10;;;;;;;2.90;1.80;;;;;;;;;;5053828;28;20511;-74
2022/06/22 14:41:39;;;;;;;2.30;1.80;;;;;;;;;;5030457;28;20420;-75
2022/06/22 14:44:11;;;;;;;2.40;1.63;;;;;;;;;;5053433;28;20484;-75
2022/06/22 14:46:43;;;;;;;3.37;1.90;;;;;;;;;;5053779;28;20424;-74
2022/06/22 14:49:09;;;;;;;2.57;1.70;;;;;;;;;;5052505;28;20416;-74
2022/06/22 14:51:53;;;;;;;4.73;1.80;;;;;;;;;;5053483;28;20778;-75
2022/06/22 14:54:23;;;;;;;4.43;1.70;;;;;;;;;;5053336;28;20455;-74
2022/06/22 14:57:01;;;;;;;6.80;2.00;;;;;;;;;;5053565;28;20459;-73
2022/06/22 14:59:36;;;;;;;4.80;1.60;;;;;;;;;;5053398;28;20404;-74
2022/06/22 15:02:11;;;;;;;3.60;2.30;;;;;;;;;;5053495;28;20412;-73
2022/06/22 15:04:43;;;;;;;2.60;1.77;;;;;;;;;;5053001;28;20454;-74
2022/06/22 15:07:16;;;;;;;3.13;1.90;;;;;;;;;;5053479;28;20489;-73
2022/06/22 15:10:05;;;;;;;2.23;1.70;;;;;;;;;;5053275;28;20496;-73
2022/06/22 15:15:19;;;;;;;5.30;1.90;;;;;;;;;;5052971;28;20459;-76
2022/06/22 15:17:48;;;;;;;5.77;1.83;;;;;;;;;;5053007;28;20435;-76
2022/06/22 15:20:17;;;;;;;3.77;2.40;;;;;;;;;;5053186;28;20400;-75
2022/06/22 15:23:03;;;;;;;2.97;1.77;;;;;;;;;;5051598;28;20474;-75
2022/06/22 15:25:46;;;;;;;3.93;1.53;;;;;;;;;;5052845;28;20440;-75
2022/06/22 15:28:19;;;;;;;2.90;1.70;;;;;;;;;;5053140;28;20455;-75
2022/06/22 15:30:53;;;;;;;3.10;2.13;;;;;;;;;;5052898;28;20462;-75
2022/06/22 15:33:23;;;;;;;3.87;1.80;;;;;;;;;;5052693;28;20431;-75
2022/06/22 15:35:55;;;;;;;5.00;1.83;;;;;;;;;;5053125;28;20428;-75
2022/06/22 15:38:29;;;;;;;3.73;2.30;;;;;;;;;;5053125;28;20500;-75
2022/06/22 15:41:04;;;;;;;5.27;1.83;;;;;;;;;;5053157;28;20411;-75
2022/06/22 15:43:42;;;;;;;3.60;1.87;;;;;;;;;;5052717;28;20471;-75
2022/06/22 15:46:17;;;;;;;2.40;1.73;;;;;;;;;;5052709;28;21035;-76
2022/06/22 15:48:52;;;;;;;3.50;1.93;;;;;;;;;;5052959;28;20404;-76